Airfield :
LOGIN :

Register | Disclaimer

   EN    FR    IT 

 










Legend :    VFR   Marginal VFR   IFR   Intensive IFR   Very Intensive IFR
Visi :
Ceiling :
>= 8 km
>= 3000ft
5 to 8 km
1000 to 3000 ft
1500m to 5 km
500 to 1000 ft
800 to 1500m
200 to 500 ft
< 800m
< 200 ft
Symbols :   Thunderstorms  Fog  Heavy snow  Heavy precipitations  Wind > 20 kt
SIGMETs :     Misc.  Thunderstorms  Icing  Turbulence  Mountain Waves  Volcanic Ashes







- Airport Elevation : 1302 ft
- IATA code : GNB
- Download approach charts


LFLS - Grenoble / St. Geoirs

CURRENT METAR :
  • 221200Z AUTO 33011KT 300V010 9999 BKN052 BKN066 19/09 Q1018 NOSIG

EXPIRED METARs :
  • 221130Z AUTO 35009KT 320V020 9999 FEW044 BKN054 19/09 Q1018 NOSIG
  • 221100Z AUTO 33010KT 300V360 9999 SCT043 SCT052 19/11 Q1018 NOSIG
  • 221030Z AUTO 34007KT 300V070 9999 FEW034 SCT043 18/09 Q1018 NOSIG
  • 221000Z AUTO 35006KT 310V030 9999 FEW035 18/10 Q1018 NOSIG
  • 220930Z AUTO 33007KT 310V030 CAVOK 17/10 Q1018 NOSIG

TAF TAF LFLS
Valid from the 22 at 09:00 until the 23 at 09:00 UTC


220800Z 2209/2309 35008KT 9999 SCT030
BECMG 2219/2221 VRB02KT
ATIS : +33 4 76 65 55 89
No reported NOTAMs for that airfield.



MET'MAP, your aeronautical weather chart ! - Copyright ORBIFLY December 2007 - Disclaimer

ORBIFLY MET'MAP TEAM :

Programming & Development : Alexandra Zaïnal
Concept & Development : Baudouin d'Aumeries
Co-Development & Prog : Marc-Olivier Méhu
Technical & hardware support : Manuel Goepfert

Contact : metmap@orbifly.com




SOURCES & CREDITS :

   NOAA